Time;durP1;ratioP1;P1;durP2;ratioP2;P2;SDS_P1;SDS_P2;PMS_P1;PMS_P2;Temp;Humidity;BMP_temperature;BMP_pressure;BME280_temperature;BME280_humidity;BME280_pressure;Samples;Min_cycle;Max_cycle;Signal;HPM_P1;HPM_P2
2022/02/04 00:20:13;;;;;;;37.75;21.67;;;7.30;99.90;;;;;;4991925;28;20081;-56
2022/02/04 00:22:22;;;;;;;35.85;20.35;;;7.30;99.90;;;;;;5010445;28;20068;-53
2022/02/04 00:27:12;;;;;;;36.70;20.85;;;7.30;99.90;;;;;;5087770;28;20852;-53
2022/02/04 00:30:18;;;;;;;37.85;21.27;;;7.30;99.90;;;;;;5109065;28;20036;-50
2022/02/04 00:32:32;;;;;;;38.75;20.30;;;7.20;99.90;;;;;;5108199;28;20050;-52
2022/02/04 00:35:26;;;;;;;37.47;21.05;;;7.20;99.90;;;;;;5110713;28;20104;-51
2022/02/04 00:40:20;;;;;;;35.28;19.67;;;7.30;99.90;;;;;;5112576;28;20036;-52
2022/02/04 00:42:46;;;;;;;31.13;18.02;;;7.20;99.90;;;;;;5112496;28;20114;-50
2022/02/04 00:45:27;;;;;;;30.85;17.75;;;7.20;99.90;;;;;;5113838;28;20067;-51
2022/02/04 00:48:02;;;;;;;30.30;18.33;;;7.20;99.90;;;;;;5113702;28;20127;-54
2022/02/04 00:50:52;;;;;;;33.33;16.98;;;7.30;99.90;;;;;;5114819;28;20050;-54
2022/02/04 00:53:20;;;;;;;29.63;16.65;;;7.30;99.90;;;;;;5113606;28;20495;-53
2022/02/04 00:56:01;;;;;;;27.08;16.60;;;7.30;99.90;;;;;;5094915;28;20091;-53
2022/02/04 01:28:41;;;;;;;36.83;19.23;;;7.00;99.90;;;;;;5014603;28;20042;-51
2022/02/04 01:31:08;;;;;;;35.70;18.23;;;7.00;99.90;;;;;;4994561;28;20041;-50
2022/02/04 01:33:34;;;;;;;33.58;18.75;;;7.00;99.90;;;;;;5031958;28;20106;-52
2022/02/04 01:36:00;;;;;;;35.25;19.50;;;6.90;99.90;;;;;;5080274;28;20049;-53
2022/02/04 01:38:28;;;;;;;32.10;18.58;;;6.90;99.90;;;;;;5083162;28;20043;-50
2022/02/04 01:40:55;;;;;;;36.17;20.27;;;6.80;99.90;;;;;;5073517;28;20032;-50
2022/02/04 01:43:22;;;;;;;38.13;20.13;;;6.80;99.90;;;;;;5095386;28;20074;-52
2022/02/04 01:45:56;;;;;;;37.58;20.05;;;6.80;99.90;;;;;;5092678;28;20101;-50
2022/02/04 01:48:22;;;;;;;38.72;21.30;;;6.70;99.90;;;;;;5075137;28;20036;-49
2022/02/04 01:50:49;;;;;;;37.45;20.95;;;6.70;99.90;;;;;;5093082;28;20058;-53
2022/02/04 01:53:18;;;;;;;37.50;21.42;;;6.70;99.90;;;;;;5090230;28;20127;-54
2022/02/04 01:55:46;;;;;;;38.95;21.35;;;6.70;99.90;;;;;;5093210;28;20079;-53
2022/02/04 01:58:12;;;;;;;37.30;19.92;;;6.70;99.90;;;;;;5092844;28;20089;-54
2022/02/04 02:00:39;;;;;;;38.97;20.65;;;6.80;99.90;;;;;;5088355;28;20047;-50
2022/02/04 02:03:06;;;;;;;39.67;20.85;;;6.80;99.90;;;;;;5096212;28;20119;-52
2022/02/04 02:05:32;;;;;;;35.80;19.70;;;6.80;99.90;;;;;;5091216;28;20157;-52
2022/02/04 02:08:10;;;;;;;39.53;20.25;;;6.80;99.90;;;;;;5073412;28;20041;-54
2022/02/04 02:10:36;;;;;;;38.33;20.38;;;6.90;99.90;;;;;;5086695;28;20034;-52
2022/02/04 02:13:16;;;;;;;38.08;20.90;;;6.90;99.90;;;;;;5103142;28;20039;-50
2022/02/04 02:43:32;;;;;;;41.03;21.70;;;7.30;99.90;;;;;;5046679;28;20054;-51
2022/02/04 02:46:11;;;;;;;39.13;22.42;;;7.30;99.90;;;;;;5091867;28;20042;-52
2022/02/04 02:59:18;;;;;;;39.35;22.70;;;7.40;99.90;;;;;;5091897;28;20044;-50
2022/02/04 03:01:32;;;;;;;40.07;22.70;;;7.30;99.90;;;;;;5096623;28;20042;-50
2022/02/04 03:04:02;;;;;;;38.00;22.17;;;7.40;99.90;;;;;;5112312;28;20035;-50
2022/02/04 03:06:27;;;;;;;39.33;23.13;;;7.40;99.90;;;;;;5112032;28;20410;-50
2022/02/04 03:08:53;;;;;;;44.05;23.98;;;7.40;99.90;;;;;;5109656;28;20044;-51
2022/02/04 03:11:18;;;;;;;41.40;23.77;;;7.40;99.90;;;;;;5110859;28;20498;-51
2022/02/04 03:13:44;;;;;;;39.05;23.52;;;7.40;99.90;;;;;;5112160;28;20050;-50
2022/02/04 03:16:13;;;;;;;38.38;22.98;;;7.40;99.90;;;;;;5111949;28;20032;-50
2022/02/04 03:18:42;;;;;;;36.00;21.48;;;7.50;99.90;;;;;;5112338;28;20047;-53
2022/02/04 03:21:17;;;;;;;40.72;22.85;;;7.50;99.90;;;;;;5105515;28;20106;-51
2022/02/04 03:23:48;;;;;;;38.50;23.08;;;7.40;99.90;;;;;;5110895;28;20096;-54
2022/02/04 03:26:27;;;;;;;39.00;23.73;;;7.40;99.90;;;;;;5111895;28;20045;-53
2022/02/04 03:28:53;;;;;;;38.67;22.95;;;7.40;99.90;;;;;;5112016;28;20067;-55
2022/02/04 03:31:19;;;;;;;38.53;22.23;;;7.40;99.90;;;;;;5110682;28;20492;-54
2022/02/04 03:33:46;;;;;;;35.58;22.27;;;7.40;99.90;;;;;;5111899;28;20071;-54
2022/02/04 03:36:12;;;;;;;37.22;22.58;;;7.40;99.90;;;;;;5110186;28;20475;-54
2022/02/04 03:38:38;;;;;;;39.97;22.20;;;7.40;99.90;;;;;;5110698;28;20050;-53
2022/02/04 03:41:06;;;;;;;36.88;21.95;;;7.40;99.90;;;;;;5110860;28;20035;-55
2022/02/04 03:43:32;;;;;;;36.72;22.30;;;7.50;99.90;;;;;;5110460;28;20169;-53
2022/02/04 03:45:57;;;;;;;40.28;21.80;;;7.50;99.90;;;;;;5111479;28;20081;-54
2022/02/04 03:48:23;;;;;;;39.65;22.45;;;7.50;99.90;;;;;;5111698;28;20170;-54
2022/02/04 03:50:49;;;;;;;38.08;22.02;;;7.50;99.90;;;;;;5091379;28;20506;-53
2022/02/04 03:53:15;;;;;;;35.40;21.33;;;7.50;99.90;;;;;;5095623;28;20040;-54
2022/02/04 03:55:42;;;;;;;40.80;22.23;;;7.50;99.90;;;;;;5111505;28;20619;-54
2022/02/04 03:58:11;;;;;;;40.00;22.98;;;7.50;99.90;;;;;;5111566;28;20491;-54
2022/02/04 04:00:37;;;;;;;37.60;21.95;;;7.50;99.90;;;;;;5110351;28;20036;-54
2022/02/04 04:03:03;;;;;;;36.80;22.52;;;7.50;99.90;;;;;;5100455;28;20139;-55
2022/02/04 04:05:29;;;;;;;38.97;22.55;;;7.50;99.90;;;;;;5081746;28;20115;-53
2022/02/04 04:07:55;;;;;;;38.78;22.25;;;7.50;99.90;;;;;;5071127;28;20155;-54
2022/02/04 04:10:26;;;;;;;40.78;23.38;;;7.50;99.90;;;;;;5093559;28;20539;-53
2022/02/04 04:12:53;;;;;;;38.75;22.65;;;7.50;99.90;;;;;;5091710;28;20040;-54
2022/02/04 04:15:19;;;;;;;40.30;22.55;;;7.50;99.90;;;;;;5093421;28;20047;-53
2022/02/04 04:17:46;;;;;;;38.13;23.17;;;7.50;99.90;;;;;;5094763;28;20446;-53
2022/02/04 04:20:20;;;;;;;38.42;22.83;;;7.50;99.90;;;;;;5109760;28;20085;-54
2022/02/04 04:22:46;;;;;;;38.42;23.52;;;7.50;99.90;;;;;;5113945;28;20032;-53
2022/02/04 04:25:13;;;;;;;36.85;22.67;;;7.50;99.90;;;;;;5113813;28;20126;-54
2022/02/04 04:27:40;;;;;;;37.97;22.20;;;7.50;99.90;;;;;;5113892;28;20491;-53
2022/02/04 04:30:07;;;;;;;40.10;22.38;;;7.50;99.90;;;;;;5106178;28;20044;-54
2022/02/04 04:32:33;;;;;;;37.00;21.13;;;7.50;99.90;;;;;;5094885;28;20052;-54
2022/02/04 04:34:59;;;;;;;35.55;22.65;;;7.60;99.90;;;;;;5094341;28;20085;-54
2022/02/04 04:37:25;;;;;;;34.55;20.67;;;7.60;99.90;;;;;;5094706;28;20039;-54
2022/02/04 04:40:17;;;;;;;32.47;20.63;;;7.60;99.90;;;;;;5082869;28;20049;-53
2022/02/04 05:31:21;;;;;;;32.45;18.38;;;7.80;99.90;;;;;;5093590;28;20048;-53
2022/02/04 05:33:48;;;;;;;28.08;17.45;;;7.80;99.90;;;;;;5093474;28;20040;-53
2022/02/04 05:36:14;;;;;;;29.52;16.92;;;7.80;99.90;;;;;;5093960;28;20047;-53
2022/02/04 05:38:41;;;;;;;27.08;17.10;;;7.80;99.90;;;;;;5093294;28;20032;-54
2022/02/04 05:41:10;;;;;;;25.67;17.20;;;7.80;99.90;;;;;;5072960;28;20044;-54
2022/02/04 05:43:38;;;;;;;26.48;17.27;;;7.80;99.90;;;;;;5072082;28;20404;-54
2022/02/04 05:46:11;;;;;;;25.45;17.02;;;7.90;99.90;;;;;;5109272;28;20059;-53
2022/02/04 05:48:40;;;;;;;27.90;16.55;;;7.90;99.90;;;;;;5112481;28;20048;-54
2022/02/04 05:51:35;;;;;;;28.35;16.75;;;7.80;99.90;;;;;;5108221;28;20531;-54
2022/02/04 05:59:18;;;;;;;27.08;17.20;;;7.90;99.90;;;;;;5109971;28;20042;-53
2022/02/04 06:04:40;;;;;;;25.88;15.82;;;7.80;99.90;;;;;;5113453;28;20562;-55
2022/02/04 06:14:42;;;;;;;23.60;15.10;;;7.80;99.90;;;;;;5109202;28;20044;-56
2022/02/04 06:22:41;;;;;;;20.45;14.20;;;7.80;99.90;;;;;;5052453;28;20052;-49
2022/02/04 06:27:46;;;;;;;21.75;13.57;;;7.90;99.90;;;;;;5029538;28;20052;-49
2022/02/04 06:30:13;;;;;;;22.08;13.32;;;7.80;99.90;;;;;;5031539;28;20477;-49
2022/02/04 06:32:39;;;;;;;21.52;12.27;;;7.90;99.90;;;;;;5032265;28;20041;-49
2022/02/04 06:35:08;;;;;;;21.10;13.60;;;7.90;99.90;;;;;;5031992;28;20037;-50
2022/02/04 06:37:34;;;;;;;20.20;12.60;;;7.90;99.90;;;;;;5031047;28;20041;-49
2022/02/04 06:40:00;;;;;;;21.65;13.32;;;7.90;99.90;;;;;;5032395;28;20107;-49
2022/02/04 06:42:26;;;;;;;19.95;12.15;;;7.80;99.90;;;;;;5031857;28;20033;-49
2022/02/04 06:44:53;;;;;;;21.27;12.15;;;7.80;99.90;;;;;;5031910;28;20099;-49
2022/02/04 06:47:19;;;;;;;18.33;11.93;;;7.90;99.90;;;;;;5031847;28;20107;-52
2022/02/04 06:49:46;;;;;;;22.85;12.85;;;7.90;99.90;;;;;;5031661;28;20417;-53
2022/02/04 06:52:13;;;;;;;20.88;12.15;;;7.90;99.90;;;;;;5031953;28;20084;-49
2022/02/04 06:54:39;;;;;;;17.08;11.23;;;7.90;99.90;;;;;;5031923;28;20529;-52
2022/02/04 06:57:05;;;;;;;16.45;11.07;;;8.00;99.90;;;;;;5031335;28;20071;-48
2022/02/04 06:59:30;;;;;;;16.45;11.05;;;7.90;99.90;;;;;;5030464;28;20041;-49
2022/02/04 07:01:56;;;;;;;18.20;11.82;;;7.90;99.90;;;;;;5030446;28;20045;-49
2022/02/04 07:04:22;;;;;;;20.38;11.80;;;7.90;99.90;;;;;;5025152;28;20041;-49
2022/02/04 07:06:55;;;;;;;16.50;11.05;;;7.90;99.90;;;;;;5021755;28;20482;-51
2022/02/04 07:09:32;;;;;;;17.58;11.30;;;8.00;99.90;;;;;;5018370;28;20071;-49
2022/02/04 07:19:46;;;;;;;23.00;11.60;;;7.90;99.90;;;;;;5020739;28;20033;-52
2022/02/04 07:22:16;;;;;;;15.68;10.82;;;8.00;99.90;;;;;;5021438;28;20092;-55
2022/02/04 07:24:42;;;;;;;18.05;10.48;;;7.90;99.90;;;;;;5029048;28;20041;-54
2022/02/04 07:27:08;;;;;;;16.23;10.68;;;7.90;99.90;;;;;;5031522;28;20045;-54
2022/02/04 07:29:34;;;;;;;17.90;11.38;;;7.90;99.90;;;;;;5030823;28;20037;-55
2022/02/04 07:32:06;;;;;;;17.77;10.60;;;7.90;99.90;;;;;;5031548;28;20072;-53
2022/02/04 07:34:44;;;;;;;20.52;11.02;;;7.80;99.90;;;;;;5031995;28;20038;-53
2022/02/04 07:42:38;;;;;;;15.48;10.13;;;7.90;99.90;;;;;;5027948;28;20080;-50
2022/02/04 07:45:04;;;;;;;14.65;10.27;;;7.90;99.90;;;;;;5011555;28;20080;-53
2022/02/04 07:47:30;;;;;;;17.73;10.60;;;7.90;99.90;;;;;;5030328;28;20046;-53
2022/02/04 07:49:56;;;;;;;14.05;10.23;;;7.90;99.90;;;;;;5026858;28;20052;-53
2022/02/04 07:52:21;;;;;;;19.27;11.07;;;7.90;99.90;;;;;;5035060;28;20124;-52
2022/02/04 07:54:47;;;;;;;20.73;10.75;;;7.90;99.90;;;;;;5031171;28;20424;-53
2022/02/04 07:57:12;;;;;;;16.10;10.50;;;7.90;99.90;;;;;;5015482;28;20038;-52
2022/02/04 07:59:38;;;;;;;16.55;10.23;;;7.80;99.90;;;;;;5032632;28;20204;-52
2022/02/04 08:02:04;;;;;;;17.70;10.70;;;7.90;99.90;;;;;;5035532;28;20045;-51
2022/02/04 08:04:32;;;;;;;17.05;10.50;;;7.90;99.90;;;;;;5033496;28;20519;-49
2022/02/04 08:07:04;;;;;;;16.13;10.60;;;7.90;99.90;;;;;;5018281;28;20406;-49
2022/02/04 08:17:27;;;;;;;18.05;11.18;;;7.90;99.90;;;;;;5034977;28;20413;-52
2022/02/04 08:20:19;;;;;;;16.33;10.23;;;7.90;99.90;;;;;;5027448;28;20559;-51
2022/02/04 08:34:06;;;;;;;12.90;8.77;;;8.00;99.90;;;;;;5028084;28;20045;-52
2022/02/04 08:37:02;;;;;;;12.68;8.93;;;8.00;99.90;;;;;;5024128;28;20068;-50
2022/02/04 08:47:58;;;;;;;12.75;8.57;;;8.10;99.90;;;;;;5020223;28;20048;-51
2022/02/04 08:55:59;;;;;;;12.45;8.82;;;8.20;99.90;;;;;;5026806;28;20116;-49
2022/02/04 08:58:36;;;;;;;13.32;9.45;;;8.20;99.90;;;;;;5030816;28;20112;-52
2022/02/04 09:01:08;;;;;;;14.00;9.52;;;8.20;99.90;;;;;;5025698;28;20061;-51
2022/02/04 09:03:49;;;;;;;13.63;9.27;;;8.30;99.90;;;;;;5026115;28;20037;-51
2022/02/04 09:06:23;;;;;;;13.65;8.95;;;8.40;99.90;;;;;;5031530;28;20493;-52
2022/02/04 09:08:54;;;;;;;12.55;9.63;;;8.40;99.90;;;;;;5031453;28;20417;-52
2022/02/04 09:19:28;;;;;;;14.82;9.57;;;8.50;99.90;;;;;;5015214;28;20476;-49
2022/02/04 09:24:23;;;;;;;15.52;10.57;;;8.50;99.90;;;;;;5033842;28;20041;-50
2022/02/04 09:26:51;;;;;;;13.52;9.98;;;8.60;99.90;;;;;;5032848;28;20497;-50
2022/02/04 09:29:16;;;;;;;14.13;8.95;;;8.60;99.90;;;;;;5032801;28;20041;-49
2022/02/04 09:31:42;;;;;;;15.30;10.45;;;8.60;99.90;;;;;;5033455;28;20401;-52
2022/02/04 09:34:09;;;;;;;13.18;9.38;;;8.60;99.90;;;;;;5032659;28;20038;-51
2022/02/04 09:36:36;;;;;;;17.42;10.73;;;8.60;99.90;;;;;;5031007;28;20036;-49
2022/02/04 09:39:02;;;;;;;12.77;10.15;;;8.70;99.90;;;;;;5033326;28;20046;-50
2022/02/04 09:41:28;;;;;;;15.50;11.30;;;8.70;99.90;;;;;;5033035;28;20045;-49
2022/02/04 09:43:54;;;;;;;18.70;10.80;;;8.80;99.90;;;;;;5033272;28;20033;-51
2022/02/04 09:46:20;;;;;;;15.65;11.02;;;8.70;99.90;;;;;;5033003;28;20126;-49
2022/02/04 09:48:51;;;;;;;15.00;10.25;;;8.70;99.90;;;;;;5033129;28;20120;-50
2022/02/04 09:51:21;;;;;;;12.13;9.67;;;8.80;99.90;;;;;;5032109;28;20482;-54
2022/02/04 10:04:32;;;;;;;15.75;10.35;;;9.00;99.90;;;;;;5013040;28;20120;-49
2022/02/04 10:06:31;;;;;;;15.82;11.15;;;9.00;99.90;;;;;;5020050;28;20539;-50
2022/02/04 10:08:21;;;;;;;15.20;10.52;;;9.10;99.90;;;;;;5030898;28;20041;-50
2022/02/04 10:14:39;;;;;;;15.40;10.25;;;9.20;99.90;;;;;;5032539;28;20045;-49
2022/02/04 10:22:03;;;;;;;15.73;10.27;;;9.40;99.90;;;;;;5027047;28;20096;-50
2022/02/04 10:24:30;;;;;;;14.98;10.35;;;9.40;99.90;;;;;;5027498;28;20052;-52
2022/02/04 10:27:16;;;;;;;15.07;10.73;;;9.50;99.90;;;;;;5025018;28;20098;-49
2022/02/04 10:29:50;;;;;;;14.25;9.50;;;9.60;99.90;;;;;;5032393;28;20033;-49
2022/02/04 10:32:16;;;;;;;15.45;10.10;;;9.60;99.90;;;;;;5031999;28;20509;-49
2022/02/04 10:34:47;;;;;;;15.23;9.52;;;9.70;99.90;;;;;;5031816;28;20084;-52
2022/02/04 10:37:33;;;;;;;14.25;9.50;;;9.70;99.90;;;;;;5030491;28;20135;-50
2022/02/04 10:47:37;;;;;;;14.10;8.05;;;9.60;99.90;;;;;;5030536;28;20080;-48
2022/02/04 10:50:12;;;;;;;11.60;7.32;;;9.80;99.90;;;;;;5032123;28;20041;-49
2022/02/04 10:53:16;;;;;;;14.68;7.50;;;9.70;99.90;;;;;;5028123;28;20042;-49
2022/02/04 10:55:57;;;;;;;13.50;7.55;;;9.60;99.90;;;;;;5031101;28;20421;-50
2022/02/04 10:58:42;;;;;;;9.20;6.68;;;9.70;99.90;;;;;;5037696;28;20386;-50
2022/02/04 11:03:41;;;;;;;9.38;6.10;;;9.70;99.90;;;;;;5032127;28;20041;-49
2022/02/04 11:06:19;;;;;;;7.90;5.25;;;9.70;99.90;;;;;;5031063;28;20045;-50
2022/02/04 11:11:50;;;;;;;9.73;6.68;;;9.70;99.90;;;;;;5029495;28;20172;-49
2022/02/04 11:22:01;;;;;;;7.18;5.28;;;9.70;99.90;;;;;;5031074;28;20068;-49
2022/02/04 11:36:10;;;;;;;7.88;5.30;;;10.00;99.90;;;;;;5031272;28;20037;-49
2022/02/04 11:53:34;;;;;;;6.40;4.68;;;10.10;99.90;;;;;;5031221;28;20505;-55
2022/02/04 11:56:00;;;;;;;6.82;4.72;;;10.10;99.90;;;;;;5030835;28;20049;-52
2022/02/04 11:58:26;;;;;;;8.95;4.88;;;10.10;99.90;;;;;;5031102;28;20038;-50
2022/02/04 12:01:04;;;;;;;6.00;4.57;;;10.10;99.90;;;;;;5030865;28;20045;-49
2022/02/04 12:03:36;;;;;;;6.30;4.10;;;10.10;99.90;;;;;;5031052;28;20551;-51
2022/02/04 12:06:03;;;;;;;6.45;4.03;;;10.00;99.90;;;;;;5029776;28;20459;-52
2022/02/04 12:08:33;;;;;;;6.90;3.40;;;10.00;99.90;;;;;;5031124;28;20052;-51
2022/02/04 12:11:02;;;;;;;6.32;3.85;;;10.00;99.90;;;;;;5030794;28;20389;-49
2022/02/04 12:13:28;;;;;;;5.55;3.47;;;10.00;99.90;;;;;;5024631;28;20096;-50
2022/02/04 12:16:07;;;;;;;5.10;3.63;;;10.00;99.90;;;;;;5024410;28;20030;-49
2022/02/04 12:18:45;;;;;;;5.80;3.38;;;10.00;99.90;;;;;;5013872;28;20033;-50
2022/02/04 12:21:17;;;;;;;10.00;3.30;;;10.00;99.90;;;;;;5011835;28;20049;-52
2022/02/04 12:23:46;;;;;;;5.63;3.30;;;10.00;99.90;;;;;;5022108;28;21077;-51
2022/02/04 12:26:19;;;;;;;5.95;3.47;;;9.90;99.90;;;;;;5020725;28;20042;-51
2022/02/04 12:28:50;;;;;;;6.38;3.53;;;9.90;99.90;;;;;;5026261;28;20038;-54
2022/02/04 12:31:16;;;;;;;7.70;3.17;;;9.90;99.90;;;;;;5026266;28;20524;-53
2022/02/04 12:33:49;;;;;;;5.10;3.42;;;9.80;99.90;;;;;;5027842;28;20045;-56
2022/02/04 12:36:26;;;;;;;10.52;4.25;;;9.80;99.90;;;;;;5029008;28;20033;-52
2022/02/04 12:38:57;;;;;;;6.80;3.70;;;9.80;99.90;;;;;;5028113;28;20444;-56
2022/02/04 12:41:35;;;;;;;7.57;3.97;;;9.70;99.90;;;;;;5031072;28;20034;-54
2022/02/04 12:44:04;;;;;;;9.50;4.38;;;9.70;99.90;;;;;;5029982;28;20052;-54
2022/02/04 12:46:31;;;;;;;9.02;4.53;;;9.70;99.90;;;;;;5031440;28;20064;-53
2022/02/04 12:49:04;;;;;;;7.25;4.50;;;9.70;99.90;;;;;;5030367;28;20038;-52
2022/02/04 12:51:43;;;;;;;6.25;3.97;;;9.60;99.90;;;;;;5030619;28;20099;-48
2022/02/04 12:54:09;;;;;;;7.95;4.30;;;9.60;99.90;;;;;;5030943;28;20069;-49
2022/02/04 12:56:54;;;;;;;6.30;5.30;;;9.50;99.90;;;;;;5030618;28;20064;-51
2022/02/04 13:02:22;;;;;;;7.68;4.70;;;9.40;99.90;;;;;;5030668;28;20038;-55
2022/02/04 13:07:46;;;;;;;7.38;4.80;;;9.20;99.90;;;;;;5030852;28;20184;-54
2022/02/04 13:10:24;;;;;;;8.27;5.30;;;9.10;99.90;;;;;;5030840;28;20056;-55
2022/02/04 13:12:53;;;;;;;7.32;5.10;;;9.10;99.90;;;;;;5026259;28;20056;-54
2022/02/04 13:15:20;;;;;;;7.70;5.13;;;9.00;99.90;;;;;;5029144;28;20073;-55
2022/02/04 13:17:46;;;;;;;9.35;5.20;;;9.00;99.90;;;;;;5022874;28;20041;-54
2022/02/04 13:20:12;;;;;;;9.30;5.93;;;8.90;99.90;;;;;;5024515;28;20493;-53
2022/02/04 13:22:38;;;;;;;8.63;6.35;;;8.90;99.90;;;;;;5029797;28;20033;-52
2022/02/04 13:25:10;;;;;;;10.32;6.80;;;8.80;99.90;;;;;;5021861;28;20501;-56
2022/02/04 13:27:36;;;;;;;8.85;6.25;;;8.70;99.90;;;;;;5020480;28;20041;-57
2022/02/04 13:30:25;;;;;;;14.02;7.40;;;8.60;99.90;;;;;;5025321;28;20038;-56
2022/02/04 13:32:50;;;;;;;11.27;7.68;;;8.50;99.90;;;;;;5019458;28;20398;-54
2022/02/04 13:35:41;;;;;;;11.82;7.07;;;8.50;99.90;;;;;;5016656;28;20040;-55
2022/02/04 13:38:21;;;;;;;8.40;6.88;;;8.50;99.90;;;;;;5018928;28;20038;-54
2022/02/04 13:46:23;;;;;;;9.55;7.60;;;8.30;99.90;;;;;;5028950;28;20055;-49
2022/02/04 13:54:31;;;;;;;10.65;6.85;;;8.30;99.90;;;;;;5050476;22;20073;-54
2022/02/04 13:57:38;;;;;;;11.43;7.15;;;8.30;99.90;;;;;;5988456;22;20068;-50
2022/02/04 14:00:04;;;;;;;11.25;7.60;;;8.30;99.90;;;;;;5041452;28;20098;-48
2022/02/04 14:02:41;;;;;;;12.32;7.43;;;8.20;99.90;;;;;;5045667;28;20041;-54
2022/02/04 14:05:07;;;;;;;9.75;7.78;;;8.30;99.90;;;;;;5049974;28;20037;-52
2022/02/04 14:07:42;;;;;;;12.45;8.27;;;8.30;99.90;;;;;;5048923;28;20048;-51
2022/02/04 14:10:33;;;;;;;10.25;7.88;;;8.20;99.90;;;;;;5065323;22;20029;-55
2022/02/04 14:13:07;;;;;;;11.15;6.40;;;8.20;99.90;;;;;;5008293;28;20046;-56
2022/02/04 14:15:35;;;;;;;10.23;7.38;;;8.20;99.90;;;;;;5002342;28;20074;-56
2022/02/04 14:18:07;;;;;;;11.20;7.50;;;8.20;99.90;;;;;;4993948;28;20180;-56
2022/02/04 14:20:33;;;;;;;10.30;7.38;;;8.20;99.90;;;;;;4986550;28;20486;-56
2022/02/04 14:23:00;;;;;;;9.02;6.45;;;8.10;99.90;;;;;;5009391;28;20041;-56
2022/02/04 14:25:26;;;;;;;8.88;6.57;;;8.20;99.90;;;;;;5006891;28;20034;-56
2022/02/04 14:27:56;;;;;;;8.82;6.15;;;8.10;99.90;;;;;;4994811;28;20056;-56
2022/02/04 14:30:26;;;;;;;1.95;1.10;;;8.10;99.90;;;;;;5001414;28;20033;-56
2022/02/04 14:33:10;;;;;;;8.52;2.92;;;7.80;99.90;;;;;;4996236;28;20066;-56
2022/02/04 14:52:17;;;;;;;1.70;0.93;;;5.40;99.90;;;;;;4953716;28;20138;-56
2022/02/04 15:00:15;;;;;;;0.10;0.10;;;5.00;99.90;;;;;;5006308;28;20181;-56
2022/02/04 15:02:45;;;;;;;1.17;0.10;;;4.90;99.90;;;;;;5009246;28;20112;-56
2022/02/04 15:05:16;;;;;;;0.93;0.32;;;4.70;99.90;;;;;;5010899;28;20046;-56
2022/02/04 15:07:43;;;;;;;1.75;0.20;;;4.60;99.90;;;;;;5009664;28;20042;-56
2022/02/04 15:10:14;;;;;;;0.25;0.10;;;4.50;99.90;;;;;;4992891;28;20081;-56
2022/02/04 15:12:40;;;;;;;0.15;0.13;;;4.50;99.90;;;;;;4993254;28;20077;-56
2022/02/04 15:15:06;;;;;;;0.32;0.15;;;4.50;99.90;;;;;;5009053;28;20034;-56
2022/02/04 15:17:32;;;;;;;0.47;0.30;;;4.40;99.90;;;;;;5011363;28;20490;-56
2022/02/04 15:19:57;;;;;;;0.68;0.40;;;4.40;99.90;;;;;;5011334;28;20041;-56
2022/02/04 15:22:26;;;;;;;0.40;0.40;;;4.30;99.90;;;;;;5011695;28;20037;-56
2022/02/04 15:24:56;;;;;;;1.27;0.20;;;4.30;99.90;;;;;;5010988;28;20048;-56
2022/02/04 15:27:21;;;;;;;0.57;0.30;;;4.20;99.90;;;;;;5011616;28;20038;-56
2022/02/04 15:29:50;;;;;;;1.85;0.50;;;4.20;99.90;;;;;;5011719;28;20042;-56
2022/02/04 15:32:15;;;;;;;0.32;0.32;;;4.20;99.90;;;;;;5011265;28;20120;-56
2022/02/04 15:34:41;;;;;;;1.48;0.50;;;4.20;99.90;;;;;;5011745;28;20105;-56
2022/02/04 15:37:07;;;;;;;0.88;0.57;;;4.20;99.90;;;;;;5011945;28;20054;-56
2022/02/04 15:39:34;;;;;;;1.67;0.60;;;4.20;99.90;;;;;;5010445;28;20034;-56
2022/02/04 15:42:08;;;;;;;0.70;0.40;;;4.10;99.90;;;;;;4994113;28;20529;-54
2022/02/04 15:47:31;;;;;;;0.88;0.70;;;4.10;99.90;;;;;;4975229;28;20060;-55
2022/02/04 15:58:08;;;;;;;0.55;0.55;;;4.10;99.90;;;;;;5009306;28;20506;-55
2022/02/04 16:01:04;;;;;;;0.50;0.50;;;4.10;99.90;;;;;;5007666;28;20108;-55
2022/02/04 16:03:47;;;;;;;1.30;0.55;;;4.10;99.90;;;;;;4989197;28;20048;-55
2022/02/04 16:06:16;;;;;;;0.85;0.50;;;4.20;99.90;;;;;;5010174;28;20034;-56
2022/02/04 16:08:41;;;;;;;1.05;0.63;;;4.20;99.90;;;;;;5012198;28;20088;-55
2022/02/04 16:11:16;;;;;;;0.50;0.47;;;4.20;99.90;;;;;;5014751;28;20486;-55
2022/02/04 16:13:52;;;;;;;1.15;0.80;;;4.20;99.90;;;;;;5009034;28;20045;-54
2022/02/04 16:16:26;;;;;;;2.10;0.70;;;4.20;99.90;;;;;;5002928;28;20061;-55
2022/02/04 16:21:37;;;;;;;0.68;0.60;;;4.10;99.90;;;;;;5012062;28;20038;-56
2022/02/04 16:24:23;;;;;;;0.73;0.73;;;4.10;99.90;;;;;;5015034;28;20038;-53
2022/02/04 16:26:55;;;;;;;1.10;1.00;;;4.10;99.90;;;;;;5013162;28;20084;-53
2022/02/04 16:29:21;;;;;;;1.45;0.80;;;4.10;99.90;;;;;;5001856;28;20037;-56
2022/02/04 16:31:46;;;;;;;2.65;1.05;;;4.20;99.90;;;;;;5000572;28;20038;-55
2022/02/04 16:34:13;;;;;;;1.20;0.90;;;4.20;99.90;;;;;;5003372;28;20401;-55
2022/02/04 16:36:45;;;;;;;3.78;1.10;;;4.20;99.90;;;;;;4986036;28;20046;-55
2022/02/04 16:39:12;;;;;;;3.17;1.00;;;4.20;99.90;;;;;;4998480;28;20429;-54
2022/02/04 16:41:51;;;;;;;2.63;1.20;;;4.20;99.90;;;;;;4998626;28;20410;-55
2022/02/04 16:44:17;;;;;;;2.97;0.85;;;4.20;99.90;;;;;;5000321;28;20046;-53
2022/02/04 16:46:43;;;;;;;4.00;1.05;;;4.30;99.90;;;;;;5002156;28;20039;-52
2022/02/04 16:49:09;;;;;;;2.97;0.82;;;4.30;99.90;;;;;;5000676;28;20042;-55
2022/02/04 16:51:34;;;;;;;3.15;0.80;;;4.30;99.90;;;;;;4998349;28;20030;-55
2022/02/04 16:54:00;;;;;;;2.63;0.80;;;4.40;99.90;;;;;;5004247;28;20084;-55
2022/02/04 16:56:26;;;;;;;2.47;0.75;;;4.30;99.90;;;;;;4998730;28;20065;-55
2022/02/04 16:58:51;;;;;;;1.33;0.95;;;4.40;99.90;;;;;;5000090;28;20112;-53
2022/02/04 17:01:18;;;;;;;2.22;0.88;;;4.40;99.90;;;;;;4998688;28;20169;-55
2022/02/04 17:03:44;;;;;;;1.65;0.98;;;4.40;99.90;;;;;;4999288;28;20042;-55
2022/02/04 17:06:10;;;;;;;1.67;0.98;;;4.40;99.90;;;;;;5001019;28;20030;-52
2022/02/04 17:08:46;;;;;;;1.35;0.57;;;4.40;99.90;;;;;;4998454;28;20207;-53
2022/02/04 17:11:15;;;;;;;2.58;0.90;;;4.40;99.90;;;;;;5000151;28;20441;-55
2022/02/04 17:13:41;;;;;;;4.70;0.70;;;4.40;99.90;;;;;;5004807;28;20077;-55
2022/02/04 17:16:07;;;;;;;2.72;0.70;;;4.40;99.90;;;;;;4996492;28;20069;-55
2022/02/04 17:18:35;;;;;;;2.15;0.88;;;4.40;99.90;;;;;;4996305;28;20038;-55
2022/02/04 17:21:00;;;;;;;5.18;0.80;;;4.40;99.90;;;;;;5000547;28;20044;-55
2022/02/04 17:23:32;;;;;;;5.75;0.82;;;4.40;99.90;;;;;;5001460;28;20034;-55
2022/02/04 17:25:59;;;;;;;5.37;0.90;;;4.40;99.90;;;;;;5003668;28;20041;-54
2022/02/04 17:28:27;;;;;;;5.18;1.05;;;4.40;99.90;;;;;;4992035;28;20084;-55
2022/02/04 17:30:53;;;;;;;4.78;1.30;;;4.30;99.90;;;;;;5002576;28;20038;-55
2022/02/04 17:33:19;;;;;;;10.57;1.40;;;4.30;99.90;;;;;;5002115;28;20039;-55
2022/02/04 17:35:45;;;;;;;5.60;1.10;;;4.30;99.90;;;;;;5008991;28;20096;-54
2022/02/04 17:38:12;;;;;;;5.90;1.08;;;4.20;99.90;;;;;;5011649;28;20042;-54
2022/02/04 17:40:37;;;;;;;9.13;1.38;;;4.20;99.90;;;;;;5007354;28;20442;-55
2022/02/04 17:43:03;;;;;;;4.88;1.20;;;4.20;99.90;;;;;;5006423;28;20034;-53
2022/02/04 17:45:29;;;;;;;2.28;0.82;;;4.10;99.90;;;;;;5002433;28;20038;-52
2022/02/04 17:48:20;;;;;;;4.25;0.90;;;4.10;99.90;;;;;;5001370;28;20061;-52
2022/02/04 17:51:07;;;;;;;4.78;1.10;;;4.10;99.90;;;;;;5010072;28;20414;-55
2022/02/04 17:53:48;;;;;;;3.63;0.98;;;4.10;99.90;;;;;;5012743;28;20440;-55
2022/02/04 17:56:35;;;;;;;7.30;1.23;;;4.10;99.90;;;;;;4992029;28;20508;-55
2022/02/04 17:59:10;;;;;;;5.45;1.20;;;4.10;99.90;;;;;;5000044;28;20034;-55
2022/02/04 18:01:58;;;;;;;5.35;1.40;;;4.10;99.90;;;;;;5009899;28;20092;-54
2022/02/04 18:09:37;;;;;;;5.93;1.50;;;4.10;99.90;;;;;;5010746;28;20049;-55
2022/02/04 18:12:04;;;;;;;12.93;1.50;;;4.20;99.90;;;;;;5009227;28;20042;-55
2022/02/04 18:14:30;;;;;;;10.93;2.15;;;4.20;99.90;;;;;;5008530;28;20034;-55
2022/02/04 18:16:55;;;;;;;7.20;1.42;;;4.20;99.90;;;;;;5012304;28;20052;-55
2022/02/04 18:19:21;;;;;;;6.85;2.00;;;4.20;99.90;;;;;;5012704;28;20085;-55
2022/02/04 18:21:46;;;;;;;9.27;1.90;;;4.20;99.90;;;;;;4993046;28;20465;-55
2022/02/04 18:24:16;;;;;;;10.05;1.73;;;4.20;99.90;;;;;;5003835;28;20037;-54
2022/02/04 18:26:41;;;;;;;9.55;2.22;;;4.30;99.90;;;;;;4999935;28;20096;-55
2022/02/04 18:29:07;;;;;;;8.63;1.90;;;4.30;99.90;;;;;;4982895;28;20414;-54
2022/02/04 18:31:33;;;;;;;12.18;1.88;;;4.30;99.90;;;;;;5000025;28;20034;-55
2022/02/04 18:34:05;;;;;;;7.43;2.15;;;4.30;99.90;;;;;;5001771;28;20046;-54
2022/02/04 18:36:31;;;;;;;5.93;1.77;;;4.30;99.90;;;;;;5002531;28;20117;-55
2022/02/04 18:41:53;;;;;;;10.75;2.33;;;4.40;99.90;;;;;;5006198;28;20037;-54
2022/02/04 18:44:22;;;;;;;11.70;2.20;;;4.40;99.90;;;;;;5005177;28;20053;-53
2022/02/04 18:46:55;;;;;;;15.05;2.33;;;4.40;99.90;;;;;;4994142;28;20045;-54
2022/02/04 18:59:26;;;;;;;12.52;2.15;;;4.50;99.90;;;;;;5011743;28;20129;-52